sensor_id;sensor_type;location;lat;lon;timestamp;P1;durP1;ratioP1;P2;durP2;ratioP2
15116;SDS011;7659;51.038;13.786;2023-02-23T00:00:01;25.13;;;13.93;;
15116;SDS011;7659;51.038;13.786;2023-02-23T00:02:38;21.13;;;13.48;;
15116;SDS011;7659;51.038;13.786;2023-02-23T00:05:04;19.15;;;13.38;;
15116;SDS011;7659;51.038;13.786;2023-02-23T00:07:29;22.50;;;14.18;;
15116;SDS011;7659;51.038;13.786;2023-02-23T00:09:55;20.50;;;13.98;;
15116;SDS011;7659;51.038;13.786;2023-02-23T00:12:21;18.50;;;13.07;;
15116;SDS011;7659;51.038;13.786;2023-02-23T00:14:48;18.92;;;12.90;;
15116;SDS011;7659;51.038;13.786;2023-02-23T00:17:13;19.98;;;13.18;;
15116;SDS011;7659;51.038;13.786;2023-02-23T00:19:41;21.65;;;13.40;;
15116;SDS011;7659;51.038;13.786;2023-02-23T00:22:10;21.27;;;13.57;;
15116;SDS011;7659;51.038;13.786;2023-02-23T00:24:36;19.50;;;13.90;;
15116;SDS011;7659;51.038;13.786;2023-02-23T00:27:02;20.45;;;13.80;;
15116;SDS011;7659;51.038;13.786;2023-02-23T00:29:32;22.70;;;13.60;;
15116;SDS011;7659;51.038;13.786;2023-02-23T00:32:03;18.50;;;13.13;;
15116;SDS011;7659;51.038;13.786;2023-02-23T00:34:28;23.40;;;15.00;;
15116;SDS011;7659;51.038;13.786;2023-02-23T00:36:54;21.35;;;14.32;;
15116;SDS011;7659;51.038;13.786;2023-02-23T00:39:20;39.58;;;23.90;;
15116;SDS011;7659;51.038;13.786;2023-02-23T00:41:49;18.95;;;13.80;;
15116;SDS011;7659;51.038;13.786;2023-02-23T00:44:16;23.08;;;14.95;;
15116;SDS011;7659;51.038;13.786;2023-02-23T00:46:42;20.60;;;13.93;;
15116;SDS011;7659;51.038;13.786;2023-02-23T00:49:09;30.20;;;15.15;;
15116;SDS011;7659;51.038;13.786;2023-02-23T00:51:35;20.50;;;14.05;;
15116;SDS011;7659;51.038;13.786;2023-02-23T00:54:01;24.92;;;15.02;;
15116;SDS011;7659;51.038;13.786;2023-02-23T00:56:27;19.25;;;13.93;;
15116;SDS011;7659;51.038;13.786;2023-02-23T00:58:53;23.13;;;14.48;;
15116;SDS011;7659;51.038;13.786;2023-02-23T01:01:18;20.35;;;14.43;;
15116;SDS011;7659;51.038;13.786;2023-02-23T01:03:44;21.27;;;15.27;;
15116;SDS011;7659;51.038;13.786;2023-02-23T01:06:11;21.10;;;14.27;;
15116;SDS011;7659;51.038;13.786;2023-02-23T01:08:38;22.00;;;15.27;;
15116;SDS011;7659;51.038;13.786;2023-02-23T01:11:11;24.80;;;15.07;;
15116;SDS011;7659;51.038;13.786;2023-02-23T01:13:37;20.23;;;14.82;;
15116;SDS011;7659;51.038;13.786;2023-02-23T01:16:04;20.73;;;15.40;;
15116;SDS011;7659;51.038;13.786;2023-02-23T01:18:29;21.58;;;15.55;;
15116;SDS011;7659;51.038;13.786;2023-02-23T01:20:55;21.30;;;15.68;;
15116;SDS011;7659;51.038;13.786;2023-02-23T01:23:20;23.15;;;15.05;;
15116;SDS011;7659;51.038;13.786;2023-02-23T01:25:48;23.55;;;16.20;;
15116;SDS011;7659;51.038;13.786;2023-02-23T01:28:13;24.48;;;15.32;;
15116;SDS011;7659;51.038;13.786;2023-02-23T01:30:39;21.40;;;16.00;;
15116;SDS011;7659;51.038;13.786;2023-02-23T01:33:06;22.08;;;16.10;;
15116;SDS011;7659;51.038;13.786;2023-02-23T01:35:33;21.85;;;15.65;;
15116;SDS011;7659;51.038;13.786;2023-02-23T01:37:59;22.98;;;15.50;;
15116;SDS011;7659;51.038;13.786;2023-02-23T01:40:25;22.20;;;15.98;;
15116;SDS011;7659;51.038;13.786;2023-02-23T01:42:58;23.60;;;15.63;;
15116;SDS011;7659;51.038;13.786;2023-02-23T01:47:49;25.88;;;16.60;;
15116;SDS011;7659;51.038;13.786;2023-02-23T01:50:15;23.35;;;16.92;;
15116;SDS011;7659;51.038;13.786;2023-02-23T01:52:43;21.73;;;15.73;;
15116;SDS011;7659;51.038;13.786;2023-02-23T01:55:09;22.35;;;16.05;;
15116;SDS011;7659;51.038;13.786;2023-02-23T01:57:37;24.13;;;16.42;;
15116;SDS011;7659;51.038;13.786;2023-02-23T02:00:03;23.23;;;16.17;;
15116;SDS011;7659;51.038;13.786;2023-02-23T02:02:58;23.10;;;16.98;;
15116;SDS011;7659;51.038;13.786;2023-02-23T02:05:25;23.35;;;15.40;;
15116;SDS011;7659;51.038;13.786;2023-02-23T02:07:52;24.67;;;16.58;;
15116;SDS011;7659;51.038;13.786;2023-02-23T02:10:23;22.30;;;15.90;;
15116;SDS011;7659;51.038;13.786;2023-02-23T02:13:05;23.98;;;15.98;;
15116;SDS011;7659;51.038;13.786;2023-02-23T02:15:32;26.10;;;17.35;;
15116;SDS011;7659;51.038;13.786;2023-02-23T02:18:04;22.67;;;15.93;;
15116;SDS011;7659;51.038;13.786;2023-02-23T02:23:15;22.48;;;15.20;;
15116;SDS011;7659;51.038;13.786;2023-02-23T02:33:23;26.80;;;16.45;;
15116;SDS011;7659;51.038;13.786;2023-02-23T02:38:40;22.73;;;16.33;;
15116;SDS011;7659;51.038;13.786;2023-02-23T02:41:26;23.25;;;16.02;;
15116;SDS011;7659;51.038;13.786;2023-02-23T02:43:57;24.95;;;16.05;;
15116;SDS011;7659;51.038;13.786;2023-02-23T02:46:29;23.85;;;16.17;;
15116;SDS011;7659;51.038;13.786;2023-02-23T02:49:02;24.30;;;16.55;;
15116;SDS011;7659;51.038;13.786;2023-02-23T02:54:23;22.27;;;15.82;;
15116;SDS011;7659;51.038;13.786;2023-02-23T02:56:51;24.15;;;16.55;;
15116;SDS011;7659;51.038;13.786;2023-02-23T02:59:19;25.33;;;16.27;;
15116;SDS011;7659;51.038;13.786;2023-02-23T03:02:04;23.67;;;16.65;;
15116;SDS011;7659;51.038;13.786;2023-02-23T03:07:39;21.67;;;16.40;;
15116;SDS011;7659;51.038;13.786;2023-02-23T03:10:35;22.80;;;15.82;;
15116;SDS011;7659;51.038;13.786;2023-02-23T03:19:10;24.27;;;17.05;;
15116;SDS011;7659;51.038;13.786;2023-02-23T03:24:49;24.38;;;17.35;;
15116;SDS011;7659;51.038;13.786;2023-02-23T03:30:23;23.75;;;16.33;;
15116;SDS011;7659;51.038;13.786;2023-02-23T03:33:14;28.40;;;17.48;;
15116;SDS011;7659;51.038;13.786;2023-02-23T03:41:39;26.75;;;16.60;;
15116;SDS011;7659;51.038;13.786;2023-02-23T03:44:31;27.45;;;18.25;;
15116;SDS011;7659;51.038;13.786;2023-02-23T03:47:17;22.63;;;16.83;;
15116;SDS011;7659;51.038;13.786;2023-02-23T03:50:05;27.08;;;17.77;;
15116;SDS011;7659;51.038;13.786;2023-02-23T03:52:50;24.17;;;16.33;;
15116;SDS011;7659;51.038;13.786;2023-02-23T03:55:37;24.50;;;17.60;;
15116;SDS011;7659;51.038;13.786;2023-02-23T03:58:24;25.63;;;17.70;;
15116;SDS011;7659;51.038;13.786;2023-02-23T04:01:10;23.55;;;16.80;;
15116;SDS011;7659;51.038;13.786;2023-02-23T04:03:56;23.55;;;16.70;;
15116;SDS011;7659;51.038;13.786;2023-02-23T04:06:42;23.85;;;17.50;;
15116;SDS011;7659;51.038;13.786;2023-02-23T04:09:27;22.98;;;16.80;;
15116;SDS011;7659;51.038;13.786;2023-02-23T04:12:16;24.50;;;16.90;;
15116;SDS011;7659;51.038;13.786;2023-02-23T04:17:29;25.63;;;16.85;;
15116;SDS011;7659;51.038;13.786;2023-02-23T04:19:55;25.00;;;17.70;;
15116;SDS011;7659;51.038;13.786;2023-02-23T04:22:22;26.75;;;17.45;;
15116;SDS011;7659;51.038;13.786;2023-02-23T04:24:48;32.63;;;17.65;;
15116;SDS011;7659;51.038;13.786;2023-02-23T04:27:14;25.95;;;17.48;;
15116;SDS011;7659;51.038;13.786;2023-02-23T04:29:39;25.63;;;17.10;;
15116;SDS011;7659;51.038;13.786;2023-02-23T04:32:05;25.30;;;16.73;;
15116;SDS011;7659;51.038;13.786;2023-02-23T04:34:31;26.08;;;17.08;;
15116;SDS011;7659;51.038;13.786;2023-02-23T04:36:57;26.63;;;17.20;;
15116;SDS011;7659;51.038;13.786;2023-02-23T04:39:22;26.05;;;17.10;;
15116;SDS011;7659;51.038;13.786;2023-02-23T04:41:48;24.17;;;17.15;;
15116;SDS011;7659;51.038;13.786;2023-02-23T04:44:14;25.52;;;17.15;;
15116;SDS011;7659;51.038;13.786;2023-02-23T04:46:40;23.00;;;16.48;;
15116;SDS011;7659;51.038;13.786;2023-02-23T04:49:05;28.08;;;17.40;;
15116;SDS011;7659;51.038;13.786;2023-02-23T04:51:31;23.17;;;16.45;;
15116;SDS011;7659;51.038;13.786;2023-02-23T04:53:58;25.25;;;17.13;;
15116;SDS011;7659;51.038;13.786;2023-02-23T04:56:24;23.65;;;17.65;;
15116;SDS011;7659;51.038;13.786;2023-02-23T04:58:49;28.52;;;17.83;;
15116;SDS011;7659;51.038;13.786;2023-02-23T05:01:15;25.50;;;18.05;;
15116;SDS011;7659;51.038;13.786;2023-02-23T05:03:41;25.98;;;17.63;;
15116;SDS011;7659;51.038;13.786;2023-02-23T05:06:06;24.90;;;17.27;;
15116;SDS011;7659;51.038;13.786;2023-02-23T05:08:31;25.92;;;17.75;;
15116;SDS011;7659;51.038;13.786;2023-02-23T05:10:57;31.70;;;18.25;;
15116;SDS011;7659;51.038;13.786;2023-02-23T05:13:22;26.45;;;18.35;;
15116;SDS011;7659;51.038;13.786;2023-02-23T05:15:48;27.65;;;17.85;;
15116;SDS011;7659;51.038;13.786;2023-02-23T05:18:13;27.60;;;18.50;;
15116;SDS011;7659;51.038;13.786;2023-02-23T05:20:41;33.22;;;19.13;;
15116;SDS011;7659;51.038;13.786;2023-02-23T05:23:07;28.30;;;18.88;;
15116;SDS011;7659;51.038;13.786;2023-02-23T05:25:32;28.17;;;19.42;;
15116;SDS011;7659;51.038;13.786;2023-02-23T05:27:58;26.77;;;18.33;;
15116;SDS011;7659;51.038;13.786;2023-02-23T05:30:23;29.52;;;19.58;;
15116;SDS011;7659;51.038;13.786;2023-02-23T05:32:49;28.45;;;19.58;;
15116;SDS011;7659;51.038;13.786;2023-02-23T05:35:15;28.83;;;18.75;;
15116;SDS011;7659;51.038;13.786;2023-02-23T05:37:41;27.30;;;19.27;;
15116;SDS011;7659;51.038;13.786;2023-02-23T05:40:06;27.08;;;19.10;;
15116;SDS011;7659;51.038;13.786;2023-02-23T05:42:32;29.88;;;18.80;;
15116;SDS011;7659;51.038;13.786;2023-02-23T05:44:57;28.95;;;20.85;;
15116;SDS011;7659;51.038;13.786;2023-02-23T05:47:23;26.40;;;19.40;;
15116;SDS011;7659;51.038;13.786;2023-02-23T05:49:48;28.88;;;18.90;;
15116;SDS011;7659;51.038;13.786;2023-02-23T05:52:14;27.52;;;19.58;;
15116;SDS011;7659;51.038;13.786;2023-02-23T05:54:39;30.27;;;20.23;;
15116;SDS011;7659;51.038;13.786;2023-02-23T05:57:04;28.40;;;19.30;;
15116;SDS011;7659;51.038;13.786;2023-02-23T05:59:30;37.35;;;20.77;;
15116;SDS011;7659;51.038;13.786;2023-02-23T06:01:55;29.77;;;20.13;;
15116;SDS011;7659;51.038;13.786;2023-02-23T06:04:21;32.47;;;19.73;;
15116;SDS011;7659;51.038;13.786;2023-02-23T06:06:47;30.13;;;20.30;;
15116;SDS011;7659;51.038;13.786;2023-02-23T06:09:12;34.83;;;21.70;;
15116;SDS011;7659;51.038;13.786;2023-02-23T06:11:38;29.75;;;21.10;;
15116;SDS011;7659;51.038;13.786;2023-02-23T06:14:03;33.70;;;20.90;;
15116;SDS011;7659;51.038;13.786;2023-02-23T06:16:29;31.33;;;20.98;;
15116;SDS011;7659;51.038;13.786;2023-02-23T06:18:54;30.48;;;20.42;;
15116;SDS011;7659;51.038;13.786;2023-02-23T06:21:20;32.03;;;21.45;;
15116;SDS011;7659;51.038;13.786;2023-02-23T06:23:45;31.80;;;21.52;;
15116;SDS011;7659;51.038;13.786;2023-02-23T06:26:11;28.85;;;20.17;;
15116;SDS011;7659;51.038;13.786;2023-02-23T06:28:36;31.95;;;21.38;;
15116;SDS011;7659;51.038;13.786;2023-02-23T06:31:02;29.15;;;19.70;;
15116;SDS011;7659;51.038;13.786;2023-02-23T06:33:27;27.75;;;20.10;;
15116;SDS011;7659;51.038;13.786;2023-02-23T06:35:54;31.65;;;20.20;;
15116;SDS011;7659;51.038;13.786;2023-02-23T06:38:20;37.63;;;21.33;;
15116;SDS011;7659;51.038;13.786;2023-02-23T06:40:45;32.10;;;20.60;;
15116;SDS011;7659;51.038;13.786;2023-02-23T06:43:11;32.47;;;21.45;;
15116;SDS011;7659;51.038;13.786;2023-02-23T06:45:36;35.55;;;22.25;;
15116;SDS011;7659;51.038;13.786;2023-02-23T06:48:02;32.20;;;20.58;;
15116;SDS011;7659;51.038;13.786;2023-02-23T06:50:28;30.00;;;20.27;;
15116;SDS011;7659;51.038;13.786;2023-02-23T06:52:53;33.08;;;21.10;;
15116;SDS011;7659;51.038;13.786;2023-02-23T06:55:22;32.47;;;20.50;;
15116;SDS011;7659;51.038;13.786;2023-02-23T06:57:47;32.78;;;20.63;;
15116;SDS011;7659;51.038;13.786;2023-02-23T07:00:13;32.20;;;21.35;;
15116;SDS011;7659;51.038;13.786;2023-02-23T07:02:39;33.17;;;20.85;;
15116;SDS011;7659;51.038;13.786;2023-02-23T07:05:05;32.33;;;21.92;;
15116;SDS011;7659;51.038;13.786;2023-02-23T07:07:30;30.15;;;21.13;;
15116;SDS011;7659;51.038;13.786;2023-02-23T07:09:57;32.53;;;21.23;;
15116;SDS011;7659;51.038;13.786;2023-02-23T07:12:22;31.27;;;21.70;;
15116;SDS011;7659;51.038;13.786;2023-02-23T07:14:48;29.92;;;21.27;;
15116;SDS011;7659;51.038;13.786;2023-02-23T07:17:13;36.10;;;22.73;;
15116;SDS011;7659;51.038;13.786;2023-02-23T07:19:39;34.03;;;22.02;;
15116;SDS011;7659;51.038;13.786;2023-02-23T07:22:04;34.20;;;20.15;;
15116;SDS011;7659;51.038;13.786;2023-02-23T07:24:30;34.65;;;21.83;;
15116;SDS011;7659;51.038;13.786;2023-02-23T07:26:55;30.67;;;21.10;;
15116;SDS011;7659;51.038;13.786;2023-02-23T07:29:21;32.70;;;20.42;;
15116;SDS011;7659;51.038;13.786;2023-02-23T07:31:48;31.35;;;21.42;;
15116;SDS011;7659;51.038;13.786;2023-02-23T07:34:14;31.77;;;22.15;;
15116;SDS011;7659;51.038;13.786;2023-02-23T07:36:39;33.63;;;22.05;;
15116;SDS011;7659;51.038;13.786;2023-02-23T07:39:05;31.70;;;21.67;;
15116;SDS011;7659;51.038;13.786;2023-02-23T07:41:31;30.25;;;20.92;;
15116;SDS011;7659;51.038;13.786;2023-02-23T07:43:58;32.70;;;21.98;;
15116;SDS011;7659;51.038;13.786;2023-02-23T07:46:24;32.65;;;22.02;;
15116;SDS011;7659;51.038;13.786;2023-02-23T07:48:50;35.40;;;21.65;;
15116;SDS011;7659;51.038;13.786;2023-02-23T07:51:15;35.13;;;22.27;;
15116;SDS011;7659;51.038;13.786;2023-02-23T07:53:41;30.70;;;21.77;;
15116;SDS011;7659;51.038;13.786;2023-02-23T07:56:08;33.03;;;21.63;;
15116;SDS011;7659;51.038;13.786;2023-02-23T07:58:38;31.40;;;20.80;;
15116;SDS011;7659;51.038;13.786;2023-02-23T08:01:04;31.02;;;20.98;;
15116;SDS011;7659;51.038;13.786;2023-02-23T08:03:29;31.23;;;21.98;;
15116;SDS011;7659;51.038;13.786;2023-02-23T08:05:55;32.47;;;21.10;;
15116;SDS011;7659;51.038;13.786;2023-02-23T08:08:20;31.27;;;22.42;;
15116;SDS011;7659;51.038;13.786;2023-02-23T08:10:46;27.85;;;20.40;;
15116;SDS011;7659;51.038;13.786;2023-02-23T08:13:13;30.05;;;21.38;;
15116;SDS011;7659;51.038;13.786;2023-02-23T08:15:39;33.40;;;21.90;;
15116;SDS011;7659;51.038;13.786;2023-02-23T08:18:05;33.70;;;22.25;;
15116;SDS011;7659;51.038;13.786;2023-02-23T08:20:30;30.27;;;21.83;;
15116;SDS011;7659;51.038;13.786;2023-02-23T08:22:56;30.67;;;21.30;;
15116;SDS011;7659;51.038;13.786;2023-02-23T08:25:22;28.08;;;19.65;;
15116;SDS011;7659;51.038;13.786;2023-02-23T08:27:48;27.17;;;18.92;;
15116;SDS011;7659;51.038;13.786;2023-02-23T08:30:16;32.10;;;19.98;;
15116;SDS011;7659;51.038;13.786;2023-02-23T08:32:43;28.80;;;19.85;;
15116;SDS011;7659;51.038;13.786;2023-02-23T08:35:08;27.30;;;19.42;;
15116;SDS011;7659;51.038;13.786;2023-02-23T08:37:34;28.45;;;20.08;;
15116;SDS011;7659;51.038;13.786;2023-02-23T08:39:59;27.27;;;19.75;;
15116;SDS011;7659;51.038;13.786;2023-02-23T08:42:25;26.15;;;18.08;;
15116;SDS011;7659;51.038;13.786;2023-02-23T08:44:51;29.40;;;19.75;;
15116;SDS011;7659;51.038;13.786;2023-02-23T08:47:17;27.17;;;19.35;;
15116;SDS011;7659;51.038;13.786;2023-02-23T08:49:46;24.58;;;17.35;;
15116;SDS011;7659;51.038;13.786;2023-02-23T08:52:11;26.42;;;17.65;;
15116;SDS011;7659;51.038;13.786;2023-02-23T08:54:37;29.75;;;18.88;;
15116;SDS011;7659;51.038;13.786;2023-02-23T08:57:02;25.48;;;18.38;;
15116;SDS011;7659;51.038;13.786;2023-02-23T08:59:28;29.00;;;19.35;;
15116;SDS011;7659;51.038;13.786;2023-02-23T09:01:53;29.45;;;18.52;;
15116;SDS011;7659;51.038;13.786;2023-02-23T09:04:19;28.05;;;19.38;;
15116;SDS011;7659;51.038;13.786;2023-02-23T09:06:45;27.77;;;19.17;;
15116;SDS011;7659;51.038;13.786;2023-02-23T09:09:12;26.98;;;18.15;;
15116;SDS011;7659;51.038;13.786;2023-02-23T09:11:37;23.95;;;17.70;;
15116;SDS011;7659;51.038;13.786;2023-02-23T09:14:03;26.67;;;17.58;;
15116;SDS011;7659;51.038;13.786;2023-02-23T09:16:29;23.48;;;18.00;;
15116;SDS011;7659;51.038;13.786;2023-02-23T09:18:54;25.55;;;17.88;;
15116;SDS011;7659;51.038;13.786;2023-02-23T09:21:20;27.70;;;18.25;;
15116;SDS011;7659;51.038;13.786;2023-02-23T09:23:49;30.48;;;17.60;;
15116;SDS011;7659;51.038;13.786;2023-02-23T09:26:16;25.88;;;17.83;;
15116;SDS011;7659;51.038;13.786;2023-02-23T09:28:44;24.63;;;16.50;;
15116;SDS011;7659;51.038;13.786;2023-02-23T09:31:11;26.50;;;17.30;;
15116;SDS011;7659;51.038;13.786;2023-02-23T09:33:37;28.05;;;17.45;;
15116;SDS011;7659;51.038;13.786;2023-02-23T09:36:03;23.27;;;17.13;;
15116;SDS011;7659;51.038;13.786;2023-02-23T09:38:28;23.70;;;17.88;;
15116;SDS011;7659;51.038;13.786;2023-02-23T09:40:55;23.15;;;17.52;;
15116;SDS011;7659;51.038;13.786;2023-02-23T09:49:01;26.48;;;17.63;;
15116;SDS011;7659;51.038;13.786;2023-02-23T09:51:28;25.08;;;17.52;;
15116;SDS011;7659;51.038;13.786;2023-02-23T09:53:55;24.73;;;17.13;;
15116;SDS011;7659;51.038;13.786;2023-02-23T09:56:24;23.90;;;17.08;;
15116;SDS011;7659;51.038;13.786;2023-02-23T09:58:51;26.25;;;18.25;;
15116;SDS011;7659;51.038;13.786;2023-02-23T10:01:35;25.33;;;16.65;;
15116;SDS011;7659;51.038;13.786;2023-02-23T10:04:11;28.02;;;17.48;;
15116;SDS011;7659;51.038;13.786;2023-02-23T10:06:39;24.92;;;16.83;;
15116;SDS011;7659;51.038;13.786;2023-02-23T10:17:19;20.02;;;15.35;;
15116;SDS011;7659;51.038;13.786;2023-02-23T10:21:41;24.75;;;17.38;;
15116;SDS011;7659;51.038;13.786;2023-02-23T10:26:40;21.30;;;16.25;;
15116;SDS011;7659;51.038;13.786;2023-02-23T10:32:11;24.02;;;15.85;;
15116;SDS011;7659;51.038;13.786;2023-02-23T10:34:39;23.75;;;14.82;;
15116;SDS011;7659;51.038;13.786;2023-02-23T10:37:05;25.38;;;15.55;;
15116;SDS011;7659;51.038;13.786;2023-02-23T10:39:31;21.00;;;15.07;;
15116;SDS011;7659;51.038;13.786;2023-02-23T10:41:58;20.58;;;15.60;;
15116;SDS011;7659;51.038;13.786;2023-02-23T10:44:24;25.52;;;15.75;;
15116;SDS011;7659;51.038;13.786;2023-02-23T10:46:53;22.08;;;15.57;;
15116;SDS011;7659;51.038;13.786;2023-02-23T10:49:21;18.95;;;14.25;;
15116;SDS011;7659;51.038;13.786;2023-02-23T10:51:47;23.42;;;15.45;;
15116;SDS011;7659;51.038;13.786;2023-02-23T10:56:56;18.75;;;13.77;;
15116;SDS011;7659;51.038;13.786;2023-02-23T10:59:22;19.15;;;13.40;;
15116;SDS011;7659;51.038;13.786;2023-02-23T11:01:48;18.92;;;14.18;;
15116;SDS011;7659;51.038;13.786;2023-02-23T11:04:26;20.45;;;13.70;;
15116;SDS011;7659;51.038;13.786;2023-02-23T11:07:12;18.58;;;13.73;;
15116;SDS011;7659;51.038;13.786;2023-02-23T11:09:38;19.65;;;13.55;;
15116;SDS011;7659;51.038;13.786;2023-02-23T11:12:16;23.35;;;14.05;;
15116;SDS011;7659;51.038;13.786;2023-02-23T11:14:46;24.65;;;14.45;;
15116;SDS011;7659;51.038;13.786;2023-02-23T11:17:25;18.13;;;13.60;;
15116;SDS011;7659;51.038;13.786;2023-02-23T11:19:55;21.30;;;12.65;;
15116;SDS011;7659;51.038;13.786;2023-02-23T11:22:22;17.55;;;12.88;;
15116;SDS011;7659;51.038;13.786;2023-02-23T11:24:51;17.83;;;12.30;;
15116;SDS011;7659;51.038;13.786;2023-02-23T11:27:19;17.38;;;13.05;;
15116;SDS011;7659;51.038;13.786;2023-02-23T11:29:45;19.70;;;12.05;;
15116;SDS011;7659;51.038;13.786;2023-02-23T11:32:16;17.67;;;11.52;;
15116;SDS011;7659;51.038;13.786;2023-02-23T11:34:43;17.35;;;11.77;;
15116;SDS011;7659;51.038;13.786;2023-02-23T11:39:49;16.13;;;10.52;;
15116;SDS011;7659;51.038;13.786;2023-02-23T11:42:16;17.38;;;10.57;;
15116;SDS011;7659;51.038;13.786;2023-02-23T11:44:48;16.58;;;11.05;;
15116;SDS011;7659;51.038;13.786;2023-02-23T11:47:15;15.18;;;11.65;;
15116;SDS011;7659;51.038;13.786;2023-02-23T11:49:43;16.38;;;10.98;;
15116;SDS011;7659;51.038;13.786;2023-02-23T11:52:11;17.20;;;11.82;;
15116;SDS011;7659;51.038;13.786;2023-02-23T11:54:38;16.33;;;11.35;;
15116;SDS011;7659;51.038;13.786;2023-02-23T11:57:04;15.95;;;11.52;;
15116;SDS011;7659;51.038;13.786;2023-02-23T11:59:36;14.07;;;10.93;;
15116;SDS011;7659;51.038;13.786;2023-02-23T12:04:39;14.45;;;11.57;;
15116;SDS011;7659;51.038;13.786;2023-02-23T12:09:52;13.60;;;10.67;;
15116;SDS011;7659;51.038;13.786;2023-02-23T12:12:20;15.75;;;10.80;;
15116;SDS011;7659;51.038;13.786;2023-02-23T12:14:51;13.38;;;10.90;;
15116;SDS011;7659;51.038;13.786;2023-02-23T12:17:24;16.35;;;11.30;;
15116;SDS011;7659;51.038;13.786;2023-02-23T12:19:55;17.00;;;11.65;;
15116;SDS011;7659;51.038;13.786;2023-02-23T12:22:24;14.95;;;10.32;;
15116;SDS011;7659;51.038;13.786;2023-02-23T12:25:10;14.93;;;10.70;;
15116;SDS011;7659;51.038;13.786;2023-02-23T12:27:51;14.45;;;10.05;;
15116;SDS011;7659;51.038;13.786;2023-02-23T12:30:22;15.40;;;10.98;;
15116;SDS011;7659;51.038;13.786;2023-02-23T12:35:25;18.02;;;10.40;;
15116;SDS011;7659;51.038;13.786;2023-02-23T12:40:37;16.92;;;12.02;;
15116;SDS011;7659;51.038;13.786;2023-02-23T12:43:10;18.65;;;12.55;;
15116;SDS011;7659;51.038;13.786;2023-02-23T12:45:40;16.08;;;10.90;;
15116;SDS011;7659;51.038;13.786;2023-02-23T12:50:49;14.52;;;10.43;;
15116;SDS011;7659;51.038;13.786;2023-02-23T12:53:17;15.45;;;10.77;;
15116;SDS011;7659;51.038;13.786;2023-02-23T13:06:26;13.57;;;9.93;;
15116;SDS011;7659;51.038;13.786;2023-02-23T13:19:37;14.68;;;10.57;;
15116;SDS011;7659;51.038;13.786;2023-02-23T13:22:11;14.30;;;10.85;;
15116;SDS011;7659;51.038;13.786;2023-02-23T13:24:42;13.85;;;10.93;;
15116;SDS011;7659;51.038;13.786;2023-02-23T13:29:43;15.88;;;11.77;;
15116;SDS011;7659;51.038;13.786;2023-02-23T13:32:10;15.63;;;11.93;;
15116;SDS011;7659;51.038;13.786;2023-02-23T13:34:41;17.98;;;12.55;;
15116;SDS011;7659;51.038;13.786;2023-02-23T13:37:07;19.35;;;11.27;;
15116;SDS011;7659;51.038;13.786;2023-02-23T13:44:36;15.63;;;11.63;;
15116;SDS011;7659;51.038;13.786;2023-02-23T13:49:56;15.00;;;10.77;;
15116;SDS011;7659;51.038;13.786;2023-02-23T13:54:55;20.45;;;12.02;;
15116;SDS011;7659;51.038;13.786;2023-02-23T13:57:22;19.52;;;11.60;;
15116;SDS011;7659;51.038;13.786;2023-02-23T13:59:47;16.02;;;11.48;;
15116;SDS011;7659;51.038;13.786;2023-02-23T14:04:42;17.92;;;11.10;;
15116;SDS011;7659;51.038;13.786;2023-02-23T14:09:33;16.58;;;11.88;;
15116;SDS011;7659;51.038;13.786;2023-02-23T14:22:22;17.92;;;13.13;;
15116;SDS011;7659;51.038;13.786;2023-02-23T14:27:33;20.17;;;12.20;;
15116;SDS011;7659;51.038;13.786;2023-02-23T14:35:02;18.77;;;13.35;;
15116;SDS011;7659;51.038;13.786;2023-02-23T14:37:30;18.25;;;12.23;;
15116;SDS011;7659;51.038;13.786;2023-02-23T14:40:00;17.80;;;12.52;;
15116;SDS011;7659;51.038;13.786;2023-02-23T14:42:26;16.77;;;11.23;;
15116;SDS011;7659;51.038;13.786;2023-02-23T14:44:54;15.73;;;10.40;;
15116;SDS011;7659;51.038;13.786;2023-02-23T14:47:21;19.25;;;11.18;;
15116;SDS011;7659;51.038;13.786;2023-02-23T14:49:54;18.33;;;10.57;;
15116;SDS011;7659;51.038;13.786;2023-02-23T14:52:24;21.25;;;12.07;;
15116;SDS011;7659;51.038;13.786;2023-02-23T14:54:51;25.92;;;11.88;;
15116;SDS011;7659;51.038;13.786;2023-02-23T14:57:18;17.70;;;11.38;;
15116;SDS011;7659;51.038;13.786;2023-02-23T14:59:45;17.45;;;11.07;;
15116;SDS011;7659;51.038;13.786;2023-02-23T15:02:15;19.67;;;12.85;;
15116;SDS011;7659;51.038;13.786;2023-02-23T15:04:40;22.42;;;15.20;;
15116;SDS011;7659;51.038;13.786;2023-02-23T15:07:08;21.17;;;14.77;;
15116;SDS011;7659;51.038;13.786;2023-02-23T15:09:39;24.60;;;16.80;;
15116;SDS011;7659;51.038;13.786;2023-02-23T15:12:12;26.73;;;18.65;;
15116;SDS011;7659;51.038;13.786;2023-02-23T15:14:38;25.95;;;18.50;;
15116;SDS011;7659;51.038;13.786;2023-02-23T15:17:04;31.38;;;19.83;;
15116;SDS011;7659;51.038;13.786;2023-02-23T15:19:31;33.28;;;21.10;;
15116;SDS011;7659;51.038;13.786;2023-02-23T15:21:58;30.15;;;21.80;;
15116;SDS011;7659;51.038;13.786;2023-02-23T15:24:26;31.02;;;22.92;;
15116;SDS011;7659;51.038;13.786;2023-02-23T15:26:53;36.65;;;23.13;;
15116;SDS011;7659;51.038;13.786;2023-02-23T15:29:19;31.27;;;23.55;;
15116;SDS011;7659;51.038;13.786;2023-02-23T15:31:46;31.67;;;21.48;;
15116;SDS011;7659;51.038;13.786;2023-02-23T15:34:17;32.80;;;22.85;;
15116;SDS011;7659;51.038;13.786;2023-02-23T15:39:21;35.90;;;23.30;;
15116;SDS011;7659;51.038;13.786;2023-02-23T15:41:51;31.48;;;23.85;;
15116;SDS011;7659;51.038;13.786;2023-02-23T15:44:21;34.10;;;22.95;;
15116;SDS011;7659;51.038;13.786;2023-02-23T15:46:51;36.10;;;24.00;;
15116;SDS011;7659;51.038;13.786;2023-02-23T15:49:18;33.60;;;23.80;;
15116;SDS011;7659;51.038;13.786;2023-02-23T15:51:48;32.42;;;23.88;;
15116;SDS011;7659;51.038;13.786;2023-02-23T15:54:22;35.40;;;23.90;;
15116;SDS011;7659;51.038;13.786;2023-02-23T15:56:48;34.05;;;23.98;;
15116;SDS011;7659;51.038;13.786;2023-02-23T15:59:21;38.92;;;25.20;;
15116;SDS011;7659;51.038;13.786;2023-02-23T16:01:50;30.58;;;23.08;;
15116;SDS011;7659;51.038;13.786;2023-02-23T16:04:18;31.73;;;23.15;;
15116;SDS011;7659;51.038;13.786;2023-02-23T16:09:20;35.10;;;24.15;;
15116;SDS011;7659;51.038;13.786;2023-02-23T16:12:07;34.60;;;24.55;;
15116;SDS011;7659;51.038;13.786;2023-02-23T16:17:06;40.03;;;26.15;;
15116;SDS011;7659;51.038;13.786;2023-02-23T16:19:31;35.88;;;25.65;;
15116;SDS011;7659;51.038;13.786;2023-02-23T16:21:57;38.40;;;25.38;;
15116;SDS011;7659;51.038;13.786;2023-02-23T16:24:24;38.13;;;26.27;;
15116;SDS011;7659;51.038;13.786;2023-02-23T16:26:59;36.08;;;24.83;;
15116;SDS011;7659;51.038;13.786;2023-02-23T16:29:29;31.85;;;23.25;;
15116;SDS011;7659;51.038;13.786;2023-02-23T16:31:55;43.63;;;25.30;;
15116;SDS011;7659;51.038;13.786;2023-02-23T16:34:24;41.72;;;25.30;;
15116;SDS011;7659;51.038;13.786;2023-02-23T16:36:53;37.05;;;25.80;;
15116;SDS011;7659;51.038;13.786;2023-02-23T16:39:19;39.30;;;28.08;;
15116;SDS011;7659;51.038;13.786;2023-02-23T16:41:47;44.33;;;27.58;;
15116;SDS011;7659;51.038;13.786;2023-02-23T16:44:13;42.00;;;28.35;;
15116;SDS011;7659;51.038;13.786;2023-02-23T16:49:29;43.42;;;30.63;;
15116;SDS011;7659;51.038;13.786;2023-02-23T16:51:55;49.00;;;29.50;;
15116;SDS011;7659;51.038;13.786;2023-02-23T16:54:21;44.65;;;29.00;;
15116;SDS011;7659;51.038;13.786;2023-02-23T16:56:46;45.65;;;30.05;;